sensor_id;sensor_type;location;lat;lon;timestamp;P1;durP1;ratioP1;P2;durP2;ratioP2
6928;SDS011;3504;52.616;13.238;2022-10-01T00:01:27;7.37;;;6.47;;
6928;SDS011;3504;52.616;13.238;2022-10-01T00:06:27;8.40;;;6.33;;
6928;SDS011;3504;52.616;13.238;2022-10-01T00:11:28;9.00;;;7.00;;
6928;SDS011;3504;52.616;13.238;2022-10-01T00:16:30;9.00;;;6.33;;
6928;SDS011;3504;52.616;13.238;2022-10-01T00:21:31;9.10;;;7.07;;
6928;SDS011;3504;52.616;13.238;2022-10-01T00:26:33;9.93;;;6.53;;
6928;SDS011;3504;52.616;13.238;2022-10-01T00:31:36;7.80;;;6.97;;
6928;SDS011;3504;52.616;13.238;2022-10-01T00:36:36;8.17;;;7.33;;
6928;SDS011;3504;52.616;13.238;2022-10-01T00:41:37;9.50;;;7.90;;
6928;SDS011;3504;52.616;13.238;2022-10-01T00:46:38;8.90;;;7.63;;
6928;SDS011;3504;52.616;13.238;2022-10-01T00:51:43;10.20;;;9.17;;
6928;SDS011;3504;52.616;13.238;2022-10-01T00:56:49;13.07;;;9.57;;
6928;SDS011;3504;52.616;13.238;2022-10-01T01:01:52;12.97;;;10.50;;
6928;SDS011;3504;52.616;13.238;2022-10-01T01:06:56;12.17;;;10.53;;
6928;SDS011;3504;52.616;13.238;2022-10-01T01:22:55;12.00;;;9.57;;
6928;SDS011;3504;52.616;13.238;2022-10-01T01:28:31;12.73;;;9.53;;
6928;SDS011;3504;52.616;13.238;2022-10-01T01:33:44;11.43;;;9.63;;
6928;SDS011;3504;52.616;13.238;2022-10-01T01:38:48;11.17;;;10.00;;
6928;SDS011;3504;52.616;13.238;2022-10-01T01:44:00;12.47;;;9.17;;
6928;SDS011;3504;52.616;13.238;2022-10-01T01:49:05;12.60;;;9.77;;
6928;SDS011;3504;52.616;13.238;2022-10-01T01:54:08;14.83;;;11.27;;
6928;SDS011;3504;52.616;13.238;2022-10-01T01:59:08;14.77;;;10.93;;
6928;SDS011;3504;52.616;13.238;2022-10-01T02:04:17;10.60;;;9.50;;
6928;SDS011;3504;52.616;13.238;2022-10-01T02:14:50;12.20;;;9.47;;
6928;SDS011;3504;52.616;13.238;2022-10-01T02:19:56;14.93;;;11.03;;
6928;SDS011;3504;52.616;13.238;2022-10-01T02:25:05;13.03;;;10.63;;
6928;SDS011;3504;52.616;13.238;2022-10-01T02:30:07;13.23;;;10.03;;
6928;SDS011;3504;52.616;13.238;2022-10-01T02:35:11;10.93;;;9.43;;
6928;SDS011;3504;52.616;13.238;2022-10-01T02:40:16;12.73;;;10.60;;
6928;SDS011;3504;52.616;13.238;2022-10-01T02:45:24;11.50;;;10.27;;
6928;SDS011;3504;52.616;13.238;2022-10-01T02:50:27;12.73;;;10.57;;
6928;SDS011;3504;52.616;13.238;2022-10-01T02:55:36;12.37;;;11.07;;
6928;SDS011;3504;52.616;13.238;2022-10-01T03:00:39;13.90;;;11.57;;
6928;SDS011;3504;52.616;13.238;2022-10-01T03:05:39;13.53;;;10.63;;
6928;SDS011;3504;52.616;13.238;2022-10-01T03:10:40;11.50;;;10.30;;
6928;SDS011;3504;52.616;13.238;2022-10-01T03:15:40;12.90;;;11.33;;
6928;SDS011;3504;52.616;13.238;2022-10-01T03:20:41;16.67;;;11.50;;
6928;SDS011;3504;52.616;13.238;2022-10-01T03:25:41;16.00;;;12.17;;
6928;SDS011;3504;52.616;13.238;2022-10-01T03:30:42;13.63;;;11.37;;
6928;SDS011;3504;52.616;13.238;2022-10-01T03:35:42;13.17;;;11.07;;
6928;SDS011;3504;52.616;13.238;2022-10-01T03:40:43;13.80;;;11.03;;
6928;SDS011;3504;52.616;13.238;2022-10-01T03:45:43;12.67;;;11.07;;
6928;SDS011;3504;52.616;13.238;2022-10-01T03:50:51;16.53;;;11.90;;
6928;SDS011;3504;52.616;13.238;2022-10-01T03:55:53;15.00;;;12.57;;
6928;SDS011;3504;52.616;13.238;2022-10-01T04:00:54;15.90;;;11.90;;
6928;SDS011;3504;52.616;13.238;2022-10-01T04:05:55;13.20;;;11.80;;
6928;SDS011;3504;52.616;13.238;2022-10-01T04:10:56;14.30;;;12.80;;
6928;SDS011;3504;52.616;13.238;2022-10-01T04:15:56;19.17;;;13.60;;
6928;SDS011;3504;52.616;13.238;2022-10-01T04:20:57;18.27;;;13.33;;
6928;SDS011;3504;52.616;13.238;2022-10-01T04:26:00;16.53;;;12.77;;
6928;SDS011;3504;52.616;13.238;2022-10-01T04:31:02;15.80;;;12.83;;
6928;SDS011;3504;52.616;13.238;2022-10-01T04:36:21;15.57;;;12.07;;
6928;SDS011;3504;52.616;13.238;2022-10-01T04:41:23;16.93;;;13.23;;
6928;SDS011;3504;52.616;13.238;2022-10-01T04:46:25;15.50;;;12.83;;
6928;SDS011;3504;52.616;13.238;2022-10-01T04:51:25;14.27;;;11.73;;
6928;SDS011;3504;52.616;13.238;2022-10-01T04:56:26;14.23;;;11.60;;
6928;SDS011;3504;52.616;13.238;2022-10-01T05:01:26;14.00;;;11.93;;
6928;SDS011;3504;52.616;13.238;2022-10-01T05:06:27;16.73;;;12.07;;
6928;SDS011;3504;52.616;13.238;2022-10-01T05:11:27;13.83;;;11.77;;
6928;SDS011;3504;52.616;13.238;2022-10-01T05:16:28;13.00;;;11.37;;
6928;SDS011;3504;52.616;13.238;2022-10-01T05:21:28;16.73;;;10.90;;
6928;SDS011;3504;52.616;13.238;2022-10-01T05:26:30;11.83;;;10.53;;
6928;SDS011;3504;52.616;13.238;2022-10-01T05:31:31;12.53;;;10.97;;
6928;SDS011;3504;52.616;13.238;2022-10-01T05:36:33;12.87;;;10.50;;
6928;SDS011;3504;52.616;13.238;2022-10-01T05:41:37;14.50;;;11.40;;
6928;SDS011;3504;52.616;13.238;2022-10-01T05:46:39;14.60;;;11.07;;
6928;SDS011;3504;52.616;13.238;2022-10-01T05:51:40;13.47;;;10.87;;
6928;SDS011;3504;52.616;13.238;2022-10-01T05:56:41;17.80;;;10.20;;
6928;SDS011;3504;52.616;13.238;2022-10-01T06:01:41;12.03;;;10.53;;
6928;SDS011;3504;52.616;13.238;2022-10-01T06:06:42;13.23;;;10.30;;
6928;SDS011;3504;52.616;13.238;2022-10-01T06:11:42;13.77;;;11.00;;
6928;SDS011;3504;52.616;13.238;2022-10-01T06:16:43;12.83;;;10.70;;
6928;SDS011;3504;52.616;13.238;2022-10-01T06:21:43;12.30;;;10.40;;
6928;SDS011;3504;52.616;13.238;2022-10-01T06:26:44;12.13;;;9.77;;
6928;SDS011;3504;52.616;13.238;2022-10-01T06:31:44;13.63;;;9.47;;
6928;SDS011;3504;52.616;13.238;2022-10-01T06:36:45;12.40;;;9.40;;
6928;SDS011;3504;52.616;13.238;2022-10-01T06:41:46;12.43;;;9.77;;
6928;SDS011;3504;52.616;13.238;2022-10-01T06:46:48;13.77;;;9.60;;
6928;SDS011;3504;52.616;13.238;2022-10-01T06:51:48;11.10;;;9.73;;
6928;SDS011;3504;52.616;13.238;2022-10-01T06:57:07;10.30;;;8.60;;
6928;SDS011;3504;52.616;13.238;2022-10-01T07:02:11;10.30;;;9.30;;
6928;SDS011;3504;52.616;13.238;2022-10-01T07:07:31;10.53;;;9.13;;
6928;SDS011;3504;52.616;13.238;2022-10-01T07:12:34;11.93;;;9.73;;
6928;SDS011;3504;52.616;13.238;2022-10-01T07:17:41;11.97;;;10.10;;
6928;SDS011;3504;52.616;13.238;2022-10-01T07:22:44;12.47;;;9.27;;
6928;SDS011;3504;52.616;13.238;2022-10-01T07:27:46;13.27;;;9.23;;
6928;SDS011;3504;52.616;13.238;2022-10-01T07:32:46;11.03;;;9.20;;
6928;SDS011;3504;52.616;13.238;2022-10-01T07:37:47;10.37;;;9.03;;
6928;SDS011;3504;52.616;13.238;2022-10-01T07:42:52;11.53;;;9.10;;
6928;SDS011;3504;52.616;13.238;2022-10-01T07:47:55;13.17;;;10.30;;
6928;SDS011;3504;52.616;13.238;2022-10-01T07:52:59;9.70;;;8.70;;
6928;SDS011;3504;52.616;13.238;2022-10-01T07:57:59;12.13;;;8.80;;
6928;SDS011;3504;52.616;13.238;2022-10-01T08:03:03;10.87;;;8.73;;
6928;SDS011;3504;52.616;13.238;2022-10-01T08:08:04;11.13;;;8.37;;
6928;SDS011;3504;52.616;13.238;2022-10-01T08:13:11;15.87;;;14.13;;
6928;SDS011;3504;52.616;13.238;2022-10-01T08:18:14;10.23;;;7.70;;
6928;SDS011;3504;52.616;13.238;2022-10-01T08:23:14;11.07;;;8.47;;
6928;SDS011;3504;52.616;13.238;2022-10-01T08:28:16;10.33;;;8.47;;
6928;SDS011;3504;52.616;13.238;2022-10-01T08:33:16;10.83;;;7.60;;
6928;SDS011;3504;52.616;13.238;2022-10-01T08:38:17;11.20;;;7.53;;
6928;SDS011;3504;52.616;13.238;2022-10-01T08:43:27;8.87;;;7.97;;
6928;SDS011;3504;52.616;13.238;2022-10-01T08:48:42;8.83;;;7.20;;
6928;SDS011;3504;52.616;13.238;2022-10-01T08:53:54;9.20;;;6.67;;
6928;SDS011;3504;52.616;13.238;2022-10-01T09:05:00;10.70;;;6.03;;
6928;SDS011;3504;52.616;13.238;2022-10-01T09:15:45;6.87;;;6.17;;
6928;SDS011;3504;52.616;13.238;2022-10-01T09:20:54;11.30;;;6.07;;
6928;SDS011;3504;52.616;13.238;2022-10-01T09:25:57;6.87;;;5.60;;
6928;SDS011;3504;52.616;13.238;2022-10-01T09:36:14;12.40;;;5.67;;
6928;SDS011;3504;52.616;13.238;2022-10-01T09:41:38;9.00;;;5.90;;
6928;SDS011;3504;52.616;13.238;2022-10-01T09:46:39;8.20;;;5.97;;
6928;SDS011;3504;52.616;13.238;2022-10-01T09:51:41;6.07;;;5.40;;
6928;SDS011;3504;52.616;13.238;2022-10-01T09:56:47;7.23;;;5.37;;
6928;SDS011;3504;52.616;13.238;2022-10-01T10:01:53;5.30;;;4.80;;
6928;SDS011;3504;52.616;13.238;2022-10-01T10:07:01;7.37;;;5.37;;
6928;SDS011;3504;52.616;13.238;2022-10-01T10:12:04;7.83;;;5.50;;
6928;SDS011;3504;52.616;13.238;2022-10-01T10:17:13;6.13;;;5.07;;
6928;SDS011;3504;52.616;13.238;2022-10-01T10:22:22;7.97;;;5.10;;
6928;SDS011;3504;52.616;13.238;2022-10-01T10:27:26;5.83;;;5.23;;
6928;SDS011;3504;52.616;13.238;2022-10-01T10:32:29;6.97;;;5.40;;
6928;SDS011;3504;52.616;13.238;2022-10-01T10:37:43;6.77;;;5.13;;
6928;SDS011;3504;52.616;13.238;2022-10-01T10:42:50;10.00;;;5.50;;
6928;SDS011;3504;52.616;13.238;2022-10-01T10:47:53;7.60;;;5.97;;
6928;SDS011;3504;52.616;13.238;2022-10-01T10:52:55;8.27;;;6.00;;
6928;SDS011;3504;52.616;13.238;2022-10-01T10:58:15;6.40;;;5.70;;
6928;SDS011;3504;52.616;13.238;2022-10-01T11:03:22;8.73;;;7.20;;
6928;SDS011;3504;52.616;13.238;2022-10-01T11:08:28;10.83;;;8.40;;
6928;SDS011;3504;52.616;13.238;2022-10-01T11:13:36;9.47;;;7.23;;
6928;SDS011;3504;52.616;13.238;2022-10-01T11:25:00;8.10;;;6.93;;
6928;SDS011;3504;52.616;13.238;2022-10-01T11:30:14;9.07;;;7.53;;
6928;SDS011;3504;52.616;13.238;2022-10-01T11:40:42;9.13;;;7.23;;
6928;SDS011;3504;52.616;13.238;2022-10-01T11:45:55;9.40;;;7.87;;
6928;SDS011;3504;52.616;13.238;2022-10-01T11:51:15;8.57;;;7.43;;
6928;SDS011;3504;52.616;13.238;2022-10-01T11:56:26;7.17;;;5.83;;
6928;SDS011;3504;52.616;13.238;2022-10-01T12:01:54;8.07;;;6.20;;
6928;SDS011;3504;52.616;13.238;2022-10-01T12:07:44;6.63;;;5.30;;
6928;SDS011;3504;52.616;13.238;2022-10-01T12:23:53;22.90;;;10.47;;
6928;SDS011;3504;52.616;13.238;2022-10-01T12:29:33;44.07;;;15.57;;
6928;SDS011;3504;52.616;13.238;2022-10-01T12:34:48;7.97;;;5.93;;
6928;SDS011;3504;52.616;13.238;2022-10-01T12:40:04;30.60;;;11.93;;
6928;SDS011;3504;52.616;13.238;2022-10-01T12:45:26;4.90;;;4.30;;
6928;SDS011;3504;52.616;13.238;2022-10-01T12:56:32;5.57;;;5.00;;
6928;SDS011;3504;52.616;13.238;2022-10-01T13:01:50;5.53;;;5.03;;
6928;SDS011;3504;52.616;13.238;2022-10-01T13:12:52;6.73;;;5.93;;
6928;SDS011;3504;52.616;13.238;2022-10-01T13:18:17;6.70;;;5.70;;
6928;SDS011;3504;52.616;13.238;2022-10-01T13:29:33;7.50;;;5.90;;
6928;SDS011;3504;52.616;13.238;2022-10-01T13:34:54;6.20;;;5.17;;
6928;SDS011;3504;52.616;13.238;2022-10-01T13:39:57;5.93;;;5.33;;
6928;SDS011;3504;52.616;13.238;2022-10-01T13:44:59;5.63;;;4.40;;
6928;SDS011;3504;52.616;13.238;2022-10-01T13:50:13;5.57;;;4.77;;
6928;SDS011;3504;52.616;13.238;2022-10-01T13:55:26;8.90;;;6.70;;
6928;SDS011;3504;52.616;13.238;2022-10-01T14:00:29;5.53;;;4.03;;
6928;SDS011;3504;52.616;13.238;2022-10-01T14:05:39;4.33;;;3.93;;
6928;SDS011;3504;52.616;13.238;2022-10-01T14:10:43;4.23;;;3.83;;
6928;SDS011;3504;52.616;13.238;2022-10-01T14:16:09;4.70;;;3.73;;
6928;SDS011;3504;52.616;13.238;2022-10-01T14:38:11;4.83;;;3.87;;
6928;SDS011;3504;52.616;13.238;2022-10-01T14:43:17;5.43;;;4.73;;
6928;SDS011;3504;52.616;13.238;2022-10-01T14:48:27;5.70;;;5.10;;
6928;SDS011;3504;52.616;13.238;2022-10-01T14:53:31;6.10;;;4.97;;
6928;SDS011;3504;52.616;13.238;2022-10-01T14:58:46;4.37;;;3.97;;
6928;SDS011;3504;52.616;13.238;2022-10-01T15:03:53;7.50;;;6.10;;
6928;SDS011;3504;52.616;13.238;2022-10-01T15:08:54;6.67;;;5.50;;
6928;SDS011;3504;52.616;13.238;2022-10-01T15:14:15;6.90;;;4.87;;
6928;SDS011;3504;52.616;13.238;2022-10-01T15:19:23;5.03;;;4.40;;
6928;SDS011;3504;52.616;13.238;2022-10-01T15:24:25;4.27;;;3.90;;
6928;SDS011;3504;52.616;13.238;2022-10-01T15:29:37;5.23;;;4.73;;
6928;SDS011;3504;52.616;13.238;2022-10-01T15:34:40;4.70;;;3.70;;
6928;SDS011;3504;52.616;13.238;2022-10-01T15:39:46;7.90;;;4.40;;
6928;SDS011;3504;52.616;13.238;2022-10-01T15:45:09;5.13;;;4.27;;
6928;SDS011;3504;52.616;13.238;2022-10-01T15:50:25;4.23;;;3.83;;
6928;SDS011;3504;52.616;13.238;2022-10-01T15:55:42;4.23;;;3.60;;
6928;SDS011;3504;52.616;13.238;2022-10-01T16:06:55;3.60;;;3.30;;
6928;SDS011;3504;52.616;13.238;2022-10-01T16:11:49;6.67;;;5.13;;
6928;SDS011;3504;52.616;13.238;2022-10-01T16:27:18;4.57;;;4.17;;
6928;SDS011;3504;52.616;13.238;2022-10-01T16:32:22;4.40;;;4.00;;
6928;SDS011;3504;52.616;13.238;2022-10-01T16:37:23;5.00;;;4.53;;
6928;SDS011;3504;52.616;13.238;2022-10-01T16:42:23;7.67;;;5.17;;
6928;SDS011;3504;52.616;13.238;2022-10-01T16:47:24;4.67;;;4.20;;
6928;SDS011;3504;52.616;13.238;2022-10-01T16:52:25;5.97;;;4.60;;
6928;SDS011;3504;52.616;13.238;2022-10-01T16:57:26;7.03;;;4.73;;
6928;SDS011;3504;52.616;13.238;2022-10-01T17:02:26;6.97;;;5.50;;
6928;SDS011;3504;52.616;13.238;2022-10-01T17:07:27;8.07;;;6.33;;
6928;SDS011;3504;52.616;13.238;2022-10-01T17:12:28;7.70;;;6.10;;
6928;SDS011;3504;52.616;13.238;2022-10-01T17:17:28;7.67;;;6.70;;
6928;SDS011;3504;52.616;13.238;2022-10-01T17:22:29;5.93;;;5.30;;
6928;SDS011;3504;52.616;13.238;2022-10-01T17:27:30;9.47;;;8.60;;
6928;SDS011;3504;52.616;13.238;2022-10-01T17:32:30;10.23;;;8.93;;
6928;SDS011;3504;52.616;13.238;2022-10-01T17:37:32;8.67;;;7.60;;
6928;SDS011;3504;52.616;13.238;2022-10-01T17:42:34;10.03;;;9.07;;
6928;SDS011;3504;52.616;13.238;2022-10-01T17:47:35;7.63;;;5.50;;
6928;SDS011;3504;52.616;13.238;2022-10-01T17:52:35;6.13;;;5.53;;
6928;SDS011;3504;52.616;13.238;2022-10-01T17:57:36;8.10;;;7.23;;
6928;SDS011;3504;52.616;13.238;2022-10-01T18:02:37;7.83;;;7.03;;
6928;SDS011;3504;52.616;13.238;2022-10-01T18:07:38;6.33;;;4.63;;
6928;SDS011;3504;52.616;13.238;2022-10-01T18:12:39;8.47;;;6.63;;
6928;SDS011;3504;52.616;13.238;2022-10-01T18:17:40;10.57;;;8.73;;
6928;SDS011;3504;52.616;13.238;2022-10-01T18:22:40;11.10;;;7.77;;
6928;SDS011;3504;52.616;13.238;2022-10-01T18:27:41;10.73;;;6.90;;
6928;SDS011;3504;52.616;13.238;2022-10-01T18:32:44;9.93;;;6.83;;
6928;SDS011;3504;52.616;13.238;2022-10-01T18:38:09;9.00;;;7.60;;
6928;SDS011;3504;52.616;13.238;2022-10-01T18:43:24;6.87;;;6.17;;
6928;SDS011;3504;52.616;13.238;2022-10-01T18:48:33;7.47;;;6.77;;
6928;SDS011;3504;52.616;13.238;2022-10-01T18:54:02;9.13;;;7.93;;
6928;SDS011;3504;52.616;13.238;2022-10-01T19:05:16;8.77;;;7.47;;
6928;SDS011;3504;52.616;13.238;2022-10-01T19:10:55;8.07;;;7.17;;
6928;SDS011;3504;52.616;13.238;2022-10-01T19:22:12;10.17;;;7.33;;
6928;SDS011;3504;52.616;13.238;2022-10-01T19:32:40;10.27;;;8.13;;
6928;SDS011;3504;52.616;13.238;2022-10-01T19:43:30;10.70;;;7.80;;
6928;SDS011;3504;52.616;13.238;2022-10-01T19:53:45;12.17;;;8.03;;
6928;SDS011;3504;52.616;13.238;2022-10-01T19:58:49;11.77;;;7.20;;
6928;SDS011;3504;52.616;13.238;2022-10-01T20:03:53;10.30;;;7.10;;
6928;SDS011;3504;52.616;13.238;2022-10-01T20:09:02;10.10;;;6.03;;
6928;SDS011;3504;52.616;13.238;2022-10-01T20:19:48;6.67;;;6.07;;
6928;SDS011;3504;52.616;13.238;2022-10-01T20:25:18;7.77;;;6.07;;
6928;SDS011;3504;52.616;13.238;2022-10-01T20:30:35;7.27;;;5.80;;
6928;SDS011;3504;52.616;13.238;2022-10-01T20:35:55;7.63;;;5.67;;
6928;SDS011;3504;52.616;13.238;2022-10-01T20:41:12;7.37;;;4.73;;
6928;SDS011;3504;52.616;13.238;2022-10-01T20:46:31;8.23;;;5.00;;
6928;SDS011;3504;52.616;13.238;2022-10-01T20:51:53;4.03;;;3.60;;
6928;SDS011;3504;52.616;13.238;2022-10-01T21:13:56;6.20;;;3.43;;
6928;SDS011;3504;52.616;13.238;2022-10-01T21:25:20;7.67;;;3.80;;
6928;SDS011;3504;52.616;13.238;2022-10-01T21:30:42;7.40;;;3.43;;
6928;SDS011;3504;52.616;13.238;2022-10-01T21:46:49;5.90;;;4.00;;
6928;SDS011;3504;52.616;13.238;2022-10-01T21:52:24;6.37;;;3.80;;
6928;SDS011;3504;52.616;13.238;2022-10-01T22:03:08;6.80;;;3.80;;
6928;SDS011;3504;52.616;13.238;2022-10-01T22:14:00;6.60;;;4.27;;
6928;SDS011;3504;52.616;13.238;2022-10-01T22:19:10;6.67;;;3.87;;
6928;SDS011;3504;52.616;13.238;2022-10-01T22:24:16;10.00;;;4.37;;
6928;SDS011;3504;52.616;13.238;2022-10-01T22:29:22;9.40;;;4.90;;
6928;SDS011;3504;52.616;13.238;2022-10-01T22:34:28;10.83;;;4.97;;
6928;SDS011;3504;52.616;13.238;2022-10-01T22:39:41;7.10;;;4.30;;
6928;SDS011;3504;52.616;13.238;2022-10-01T22:44:48;8.70;;;4.07;;
6928;SDS011;3504;52.616;13.238;2022-10-01T22:55:20;8.13;;;4.10;;
6928;SDS011;3504;52.616;13.238;2022-10-01T23:00:57;7.40;;;4.00;;
6928;SDS011;3504;52.616;13.238;2022-10-01T23:22:41;8.10;;;3.60;;
6928;SDS011;3504;52.616;13.238;2022-10-01T23:33:40;8.70;;;4.10;;
6928;SDS011;3504;52.616;13.238;2022-10-01T23:39:03;13.73;;;4.60;;
6928;SDS011;3504;52.616;13.238;2022-10-01T23:49:45;6.93;;;3.50;;
